Nuremberg Airport

EDDN · Bavaria, Germany

METAR history EDDN · Nuremberg Airport

Below you see METARs of the last few days. Select a year to browse through older METARs, from the year 2007 onwards.

June 6, 2023

Time Code Weather Temp. Visibility Ceiling Wind METAR/SPECI
11:20
M
17 °C 10 km+ 2,100 ft 350° 350° 7 kt METAR EDDN 060920Z AUTO 35007KT 310V030 9999 BKN021 OVC026 17/11 Q1018 NOSIG
10:50
M
17 °C 10 km+ 2,200 ft 010° 010° 6 kt METAR EDDN 060850Z AUTO 01006KT 330V060 9999 BKN022 BKN029 OVC043 17/11 Q1018 NOSIG
10:20
M
16 °C 10 km+ 2,200 ft 020° 020° 6 kt METAR EDDN 060820Z AUTO 02006KT 320V060 9999 BKN022 BKN031 OVC039 16/10 Q1018 NOSIG
09:50
M
16 °C 10 km+ 2,200 ft 360° 360° 7 kt METAR EDDN 060750Z AUTO 36007KT 330V050 9999 BKN022 OVC029 16/10 Q1018 NOSIG
09:20
M
16 °C 10 km+ 2,100 ft 340° 340° 9 kt METAR EDDN 060720Z AUTO 34009KT 9999 BKN021 BKN026 OVC031 16/10 Q1018 NOSIG
08:50
M
15 °C 10 km+ 2,000 ft 360° 360° 10 kt METAR EDDN 060650Z AUTO 36010KT 330V030 9999 BKN020 BKN027 15/10 Q1018 NOSIG
08:20
V
15 °C 10 km+ - 340° 340° 6 kt METAR EDDN 060620Z AUTO 34006KT 300V020 CAVOK 15/10 Q1018 NOSIG
07:50
V
14 °C 10 km+ - 310° 310° 5 kt METAR EDDN 060550Z AUTO 31005KT 280V360 CAVOK 14/10 Q1017 NOSIG
07:20
V
13 °C 10 km+ - 300° 300° 4 kt METAR EDDN 060520Z AUTO 30004KT CAVOK 13/10 Q1017 NOSIG
06:50
V
12 °C 10 km+ - 310° 310° 4 kt METAR EDDN 060450Z AUTO 31004KT CAVOK 12/09 Q1018 NOSIG
06:20
V
11 °C 10 km+ - 330° 330° 3 kt METAR EDDN 060420Z AUTO 33003KT CAVOK 11/09 Q1018 NOSIG
05:50
V
10 °C 10 km+ - 340° 340° 5 kt METAR EDDN 060350Z AUTO 34005KT CAVOK 10/08 Q1018
05:20
V
10 °C 10 km+ - 340° 340° 4 kt METAR EDDN 060320Z AUTO 34004KT CAVOK 10/08 Q1017
04:50
V
10 °C 10 km+ - 340° 340° 5 kt METAR EDDN 060250Z AUTO 34005KT CAVOK 10/08 Q1017
04:20
V
10 °C 10 km+ - 360° 360° 5 kt METAR EDDN 060220Z AUTO 36005KT CAVOK 10/08 Q1018
03:50
V
10 °C 10 km+ - 350° 350° 4 kt METAR EDDN 060150Z AUTO 35004KT CAVOK 10/08 Q1017
03:20
V
10 °C 10 km+ - 340° 340° 4 kt METAR EDDN 060120Z AUTO 34004KT CAVOK 10/08 Q1018
02:50
V
9 °C 10 km+ - 330° 330° 2 kt METAR EDDN 060050Z AUTO 33002KT CAVOK 09/08 Q1018
02:20
V
10 °C 10 km+ - 350° 350° 2 kt METAR EDDN 060020Z AUTO 35002KT CAVOK 10/08 Q1018
01:50
V
10 °C 10 km+ - 300° 300° 2 kt METAR EDDN 052350Z AUTO 30002KT CAVOK 10/09 Q1018
01:20
V
11 °C 10 km+ - Var Var 2 kt METAR EDDN 052320Z AUTO VRB02KT CAVOK 11/08 Q1018
00:50
V
11 °C 10 km+ - 010° 010° 3 kt METAR EDDN 052250Z AUTO 01003KT CAVOK 11/09 Q1018
00:20
V
12 °C 10 km+ - Var Var 2 kt METAR EDDN 052220Z AUTO VRB02KT CAVOK 12/09 Q1018

June 5, 2023

Time Code Weather Temp. Visibility Ceiling Wind METAR/SPECI
23:50
V
13 °C 10 km+ - Var Var 2 kt METAR EDDN 052150Z AUTO VRB02KT CAVOK 13/09 Q1018
23:20
V
13 °C 10 km+ - Var Var 1 kt METAR EDDN 052120Z AUTO VRB01KT CAVOK 13/09 Q1018
22:50
V
15 °C 10 km+ - 080° 080° 3 kt METAR EDDN 052050Z AUTO 08003KT 040V110 CAVOK 15/09 Q1018
22:20
V
15 °C 10 km+ - 100° 100° 6 kt METAR EDDN 052020Z AUTO 10006KT CAVOK 15/09 Q1018
21:50
V
17 °C 10 km+ - 090° 090° 7 kt METAR EDDN 051950Z AUTO 09007KT CAVOK 17/09 Q1018 NOSIG
21:20
V
17 °C 10 km+ - 080° 080° 4 kt METAR EDDN 051920Z AUTO 08004KT 040V140 CAVOK 17/10 Q1018 NOSIG
20:50
V
18 °C 10 km+ - 080° 080° 6 kt METAR EDDN 051850Z AUTO 08006KT 050V110 CAVOK 18/10 Q1017 NOSIG
20:20
V
19 °C 10 km+ - 080° 080° 6 kt METAR EDDN 051820Z AUTO 08006KT 040V110 CAVOK 19/11 Q1017 NOSIG
19:50
V
19 °C 10 km+ - 090° 090° 9 kt METAR EDDN 051750Z AUTO 09009KT CAVOK 19/11 Q1017 NOSIG
19:20
V
20 °C 10 km+ - 100° 100° 12 kt METAR EDDN 051720Z AUTO 10012KT CAVOK 20/11 Q1017 BECMG 07007KT
18:50
V
21 °C 10 km+ - 080° 080° 11 kt METAR EDDN 051650Z AUTO 08011KT 050V110 CAVOK 21/10 Q1017 BECMG 07006KT
18:20
V
21 °C 10 km+ - 080° 080° 11 kt METAR EDDN 051620Z AUTO 08011KT 040V120 9999 VCSH FEW///TCU 21/11 Q1016 NOSIG
17:50
V
22 °C 10 km+ - 080° 080° 14 kt METAR EDDN 051550Z AUTO 08014KT 040V120 9999 -SHRA FEW///TCU 22/10 Q1016 TEMPO SHRA
17:20
V
24 °C 10 km+ - 050° 050° 10 kt METAR EDDN 051520Z AUTO 05010KT 010V170 9999 -SHRA FEW///TCU 24/10 Q1016 TEMPO SHRA
16:50
V
24 °C 10 km+ - 060° 060° 9 kt METAR EDDN 051450Z AUTO 06009KT 020V110 CAVOK 24/11 Q1016 NOSIG
16:20
V
25 °C 10 km+ - 060° 060° 9 kt METAR EDDN 051420Z AUTO 06009KT 010V110 CAVOK 25/11 Q1016 NOSIG
15:50
V
25 °C 10 km+ - 070° 070° 7 kt METAR EDDN 051350Z AUTO 07007KT 030V120 CAVOK 25/11 Q1016 NOSIG
15:20
V
24 °C 10 km+ - 070° 070° 11 kt METAR EDDN 051320Z AUTO 07011KT 020V110 CAVOK 24/10 Q1016 NOSIG
14:50
V
23 °C 10 km+ - 040° 040° 9 kt METAR EDDN 051250Z AUTO 04009KT 010V090 CAVOK 23/10 Q1017 NOSIG
14:20
V
24 °C 10 km+ - 040° 040° 9 kt METAR EDDN 051220Z AUTO 04009KT 010V140 9999 FEW049 24/11 Q1017 NOSIG
13:50
V
23 °C 10 km+ - 050° 050° 9 kt METAR EDDN 051150Z AUTO 05009KT 360V090 CAVOK 23/10 Q1017 NOSIG
13:20
V
23 °C 10 km+ - 060° 060° 8 kt METAR EDDN 051120Z AUTO 06008KT 360V110 CAVOK 23/10 Q1018 NOSIG
12:50
V
23 °C 10 km+ - 080° 080° 9 kt METAR EDDN 051050Z AUTO 08009KT 020V140 CAVOK 23/10 Q1018 NOSIG
12:20
V
23 °C 10 km+ - 060° 060° 10 kt METAR EDDN 051020Z AUTO 06010KT 350V120 9999 FEW049 23/09 Q1018 NOSIG
11:50
V
22 °C 10 km+ - 060° 060° 9 kt METAR EDDN 050950Z AUTO 06009KT 020V100 9999 FEW047 22/10 Q1018 NOSIG
11:20
V
22 °C 10 km+ - 070° 070° 10 kt METAR EDDN 050920Z AUTO 07010KT 040V110 CAVOK 22/09 Q1018 NOSIG
10:50
V
21 °C 10 km+ - 050° 050° 10 kt METAR EDDN 050850Z AUTO 05010KT 020V100 CAVOK 21/09 Q1018 NOSIG
10:20
V
21 °C 10 km+ - 080° 080° 9 kt METAR EDDN 050820Z AUTO 08009KT 020V120 CAVOK 21/09 Q1018 NOSIG
09:50
V
20 °C 10 km+ - 060° 060° 9 kt METAR EDDN 050750Z AUTO 06009KT 360V110 CAVOK 20/09 Q1018 NOSIG
09:20
V
20 °C 10 km+ - 060° 060° 7 kt METAR EDDN 050720Z AUTO 06007KT 010V100 CAVOK 20/08 Q1019 NOSIG
08:50
V
19 °C 10 km+ - Var Var 3 kt METAR EDDN 050650Z AUTO VRB03KT CAVOK 19/06 Q1019 BECMG 05008KT
08:20
V
17 °C 10 km+ - Var Var 2 kt METAR EDDN 050620Z AUTO VRB02KT CAVOK 17/06 Q1019 BECMG 05008KT
07:50
V
16 °C 10 km+ - 320° 320° 3 kt METAR EDDN 050550Z AUTO 32003KT 290V350 CAVOK 16/05 Q1019 BECMG 05008KT
07:20
V
15 °C 10 km+ - Var Var 2 kt METAR EDDN 050520Z AUTO VRB02KT CAVOK 15/06 Q1019 NOSIG
06:50
V
14 °C 10 km+ - Var Var 1 kt METAR EDDN 050450Z AUTO VRB01KT CAVOK 14/07 Q1019 NOSIG
06:20
V
11 °C 10 km+ - 300° 300° 2 kt METAR EDDN 050420Z AUTO 30002KT CAVOK 11/05 Q1019 NOSIG
05:50
V
10 °C 10 km+ - Var Var 1 kt METAR EDDN 050350Z AUTO VRB01KT CAVOK 10/05 Q1018
05:20
V
10 °C 10 km+ - 310° 310° 2 kt METAR EDDN 050320Z AUTO 31002KT CAVOK 10/05 Q1018
04:50
V
11 °C 10 km+ - Var Var 1 kt METAR EDDN 050250Z AUTO VRB01KT CAVOK 11/05 Q1018
04:20
V
12 °C 10 km+ - Var Var 2 kt METAR EDDN 050220Z AUTO VRB02KT CAVOK 12/05 Q1018
03:50
V
13 °C 10 km+ - 040° 040° 4 kt METAR EDDN 050150Z AUTO 04004KT CAVOK 13/02 Q1019
03:20
V
13 °C 10 km+ - 040° 040° 3 kt METAR EDDN 050120Z AUTO 04003KT CAVOK 13/03 Q1019
02:50
V
14 °C 10 km+ - Var Var 1 kt METAR EDDN 050050Z AUTO VRB01KT CAVOK 14/03 Q1019
02:20
V
14 °C 10 km+ - Var Var 1 kt METAR EDDN 050020Z AUTO VRB01KT CAVOK 14/04 Q1019
01:50
V
14 °C 10 km+ - Var Var 1 kt METAR EDDN 042350Z AUTO VRB01KT CAVOK 14/04 Q1019
01:20
V
15 °C 10 km+ - 050° 050° 4 kt METAR EDDN 042320Z AUTO 05004KT 010V110 CAVOK 15/04 Q1019
00:50
V
16 °C 10 km+ - 050° 050° 6 kt METAR EDDN 042250Z AUTO 05006KT 020V080 CAVOK 16/04 Q1019
00:20
V
16 °C 10 km+ - 050° 050° 7 kt METAR EDDN 042220Z AUTO 05007KT 020V090 CAVOK 16/04 Q1019

June 4, 2023

Time Code Weather Temp. Visibility Ceiling Wind METAR/SPECI
23:50
V
17 °C 10 km+ - 050° 050° 7 kt METAR EDDN 042150Z AUTO 05007KT CAVOK 17/05 Q1019
23:20
V
17 °C 10 km+ - 040° 040° 7 kt METAR EDDN 042120Z AUTO 04007KT 010V080 CAVOK 17/05 Q1019
22:50
V
18 °C 10 km+ - 040° 040° 8 kt METAR EDDN 042050Z AUTO 04008KT 010V080 CAVOK 18/05 Q1019
22:20
V
18 °C 10 km+ - 040° 040° 6 kt METAR EDDN 042020Z AUTO 04006KT CAVOK 18/05 Q1019
21:50
V
18 °C 10 km+ - 030° 030° 6 kt METAR EDDN 041950Z AUTO 03006KT 010V070 CAVOK 18/05 Q1018 NOSIG
21:20
V
19 °C 10 km+ - 070° 070° 4 kt METAR EDDN 041920Z AUTO 07004KT CAVOK 19/04 Q1018 NOSIG
20:50
V
21 °C 10 km+ - 080° 080° 3 kt METAR EDDN 041850Z AUTO 08003KT CAVOK 21/04 Q1018 NOSIG
20:20
V
22 °C 10 km+ - 080° 080° 5 kt METAR EDDN 041820Z AUTO 08005KT CAVOK 22/03 Q1018 NOSIG
19:50
V
23 °C 10 km+ - 070° 070° 4 kt METAR EDDN 041750Z AUTO 07004KT 030V120 CAVOK 23/03 Q1018 NOSIG
19:20
V
23 °C 10 km+ - 030° 030° 6 kt METAR EDDN 041720Z AUTO 03006KT 350V080 CAVOK 23/03 Q1017 NOSIG
18:50
V
24 °C 10 km+ - 050° 050° 6 kt METAR EDDN 041650Z AUTO 05006KT 010V100 CAVOK 24/03 Q1017 NOSIG
18:20
V
24 °C 10 km+ - Var Var 5 kt METAR EDDN 041620Z AUTO VRB05KT CAVOK 24/03 Q1018 NOSIG
17:50
V
24 °C 10 km+ - 030° 030° 8 kt METAR EDDN 041550Z AUTO 03008KT 350V070 CAVOK 24/04 Q1018 NOSIG
17:20
V
24 °C 10 km+ - 060° 060° 7 kt METAR EDDN 041520Z AUTO 06007KT 030V110 CAVOK 24/04 Q1018 NOSIG
16:50
V
24 °C 10 km+ - Var Var 5 kt METAR EDDN 041450Z AUTO VRB05KT CAVOK 24/04 Q1018 NOSIG
16:20
V
24 °C 10 km+ - 010° 010° 8 kt METAR EDDN 041420Z AUTO 01008KT 310V050 CAVOK 24/03 Q1018 NOSIG
15:50
V
24 °C 10 km+ - 060° 060° 6 kt METAR EDDN 041350Z AUTO 06006KT 330V120 CAVOK 24/03 Q1018 NOSIG
15:20
V
24 °C 10 km+ - 350° 350° 8 kt METAR EDDN 041320Z AUTO 35008KT 310V050 CAVOK 24/03 Q1018 NOSIG
14:50
V
23 °C 10 km+ - 040° 040° 8 kt METAR EDDN 041250Z AUTO 04008KT 360V100 CAVOK 23/03 Q1019 NOSIG
14:20
V
23 °C 10 km+ - 340° 340° 6 kt METAR EDDN 041220Z AUTO 34006KT 270V040 CAVOK 23/03 Q1019 NOSIG
13:50
V
23 °C 10 km+ - Var Var 6 kt METAR EDDN 041150Z AUTO VRB06KT CAVOK 23/04 Q1019 NOSIG
13:20
V
22 °C 10 km+ - 340° 340° 7 kt METAR EDDN 041120Z AUTO 34007KT 300V060 CAVOK 22/04 Q1019 NOSIG
12:50
V
22 °C 10 km+ - Var Var 4 kt METAR EDDN 041050Z AUTO VRB04KT CAVOK 22/04 Q1019 NOSIG
12:20
V
22 °C 10 km+ - Var Var 4 kt METAR EDDN 041020Z AUTO VRB04KT CAVOK 22/04 Q1019 NOSIG
11:50
V
21 °C 10 km+ - 120° 120° 6 kt METAR EDDN 040950Z AUTO 12006KT 060V210 CAVOK 21/04 Q1019 NOSIG
11:20
V
21 °C 10 km+ - Var Var 4 kt METAR EDDN 040920Z AUTO VRB04KT CAVOK 21/04 Q1019 NOSIG
10:50
V
20 °C 10 km+ - 070° 070° 5 kt METAR EDDN 040850Z AUTO 07005KT 320V110 CAVOK 20/05 Q1019 NOSIG
10:20
V
19 °C 10 km+ - 350° 350° 4 kt METAR EDDN 040820Z AUTO 35004KT 290V060 CAVOK 19/05 Q1019 NOSIG
09:50
V
18 °C 10 km+ - 330° 330° 5 kt METAR EDDN 040750Z AUTO 33005KT 290V010 CAVOK 18/05 Q1020 NOSIG

We and third parties follow your internet behavior on our website with cookies. If you continue, we assume you agree with our cookie policy.